createdAt,value
2019-02-14T00:00:00.535Z,18.59
2019-02-14T00:02:32.115Z,18.53
2019-02-14T00:05:04.355Z,18.49
2019-02-14T00:07:36.902Z,18.44
2019-02-14T00:10:08.485Z,18.50
2019-02-14T00:12:39.794Z,18.39
2019-02-14T00:15:11.652Z,18.28
2019-02-14T00:17:43.357Z,18.56
2019-02-14T00:20:14.993Z,18.70
2019-02-14T00:22:46.260Z,18.62
2019-02-14T00:25:17.939Z,18.49
2019-02-14T00:27:49.889Z,18.47
2019-02-14T00:30:21.347Z,18.56
2019-02-14T00:32:52.972Z,18.56
2019-02-14T00:35:25.306Z,18.57
2019-02-14T00:37:56.870Z,18.57
2019-02-14T00:40:27.987Z,18.57
2019-02-14T00:42:59.251Z,18.65
2019-02-14T00:45:30.725Z,18.65
2019-02-14T00:48:02.363Z,18.64
2019-02-14T00:50:33.925Z,18.64
2019-02-14T00:53:05.128Z,18.57
2019-02-14T00:55:36.493Z,18.54
2019-02-14T00:58:08.580Z,18.54
2019-02-14T01:00:41.113Z,18.52
2019-02-14T01:03:12.860Z,18.53
2019-02-14T01:05:44.188Z,18.63
2019-02-14T01:08:15.631Z,18.53
2019-02-14T01:10:46.964Z,18.53
2019-02-14T01:13:18.248Z,19.27
2019-02-14T01:15:49.634Z,19.76
2019-02-14T01:18:21.076Z,19.76
2019-02-14T01:20:52.541Z,18.80
2019-02-14T01:23:23.693Z,18.80
2019-02-14T01:25:54.828Z,19.27
2019-02-14T01:28:25.972Z,19.45
2019-02-14T01:30:57.031Z,19.03
2019-02-14T01:33:28.261Z,19.43
2019-02-14T01:35:59.946Z,18.65
2019-02-14T01:38:31.557Z,18.65
2019-02-14T01:41:02.963Z,19.21
2019-02-14T01:43:34.484Z,19.21
2019-02-14T01:46:05.937Z,19.17
2019-02-14T01:48:37.220Z,18.61
2019-02-14T01:51:08.510Z,18.76
2019-02-14T01:53:39.710Z,18.76
2019-02-14T01:56:11.111Z,19.08
2019-02-14T01:58:42.709Z,19.08
2019-02-14T02:01:14.297Z,18.77
2019-02-14T02:03:45.806Z,19.18
2019-02-14T02:06:17.252Z,18.93
2019-02-14T02:08:49.187Z,19.09
2019-02-14T02:11:20.681Z,19.14
2019-02-14T02:13:52.398Z,19.14
2019-02-14T02:16:24.398Z,18.56
2019-02-14T02:18:55.739Z,19.44
2019-02-14T02:21:27.418Z,19.44
2019-02-14T02:23:58.745Z,19.48
2019-02-14T02:26:30.555Z,19.24
2019-02-14T02:29:02.978Z,19.31
2019-02-14T02:31:34.732Z,19.35
2019-02-14T02:34:06.217Z,19.35
2019-02-14T02:36:37.555Z,19.53
2019-02-14T02:39:09.747Z,19.53
2019-02-14T02:41:41.798Z,19.51
2019-02-14T02:44:13.111Z,19.51
2019-02-14T02:46:44.747Z,19.47
2019-02-14T02:49:15.930Z,19.72
2019-02-14T02:51:47.450Z,19.36
2019-02-14T02:54:18.711Z,19.36
2019-02-14T02:56:51.656Z,19.40
2019-02-14T02:59:23.497Z,19.67
2019-02-14T03:01:55.287Z,19.52
2019-02-14T03:04:26.939Z,19.56
2019-02-14T03:06:58.496Z,19.56
2019-02-14T03:09:29.822Z,19.07
2019-02-14T03:12:01.422Z,19.07
2019-02-14T03:14:33.886Z,19.16
2019-02-14T03:17:05.225Z,19.37
2019-02-14T03:19:37.899Z,19.37
2019-02-14T03:22:09.401Z,19.04
2019-02-14T03:24:40.764Z,19.10
2019-02-14T03:27:12.083Z,19.16
2019-02-14T03:29:43.532Z,19.60
2019-02-14T03:32:15.304Z,19.60
2019-02-14T03:34:46.640Z,19.31
2019-02-14T03:37:18.355Z,19.31
2019-02-14T03:39:50.549Z,19.81
2019-02-14T03:42:22.458Z,19.79
2019-02-14T03:44:53.797Z,19.79
2019-02-14T03:47:24.939Z,19.64
2019-02-14T03:49:56.505Z,19.57
2019-02-14T03:52:28.387Z,19.39
2019-02-14T03:54:59.655Z,19.53
2019-02-14T03:57:31.066Z,19.89
2019-02-14T04:00:02.416Z,19.89
2019-02-14T04:02:35.559Z,20.03
2019-02-14T04:05:07.144Z,19.82
2019-02-14T04:07:38.702Z,19.82
2019-02-14T04:10:11.310Z,19.88
2019-02-14T04:12:43.488Z,19.96
2019-02-14T04:15:15.921Z,19.96
2019-02-14T04:17:47.793Z,20.00
2019-02-14T04:20:18.832Z,20.10
2019-02-14T04:22:50.417Z,20.06
2019-02-14T04:25:22.034Z,20.12
2019-02-14T04:27:54.395Z,20.18
2019-02-14T04:30:25.673Z,20.18
2019-02-14T04:32:57.129Z,19.94
2019-02-14T04:35:29.025Z,19.94
2019-02-14T04:38:00.279Z,20.12
2019-02-14T04:40:33.612Z,19.99
2019-02-14T04:43:05.335Z,19.88
2019-02-14T04:45:37.075Z,19.94
2019-02-14T04:48:08.336Z,19.94
2019-02-14T04:50:39.911Z,19.81
2019-02-14T04:53:11.512Z,19.81
2019-02-14T04:55:43.056Z,19.82
2019-02-14T04:58:15.749Z,19.66
2019-02-14T05:00:46.962Z,19.11
2019-02-14T05:03:18.499Z,19.21
2019-02-14T05:05:49.666Z,19.09
2019-02-14T05:08:21.456Z,19.25
2019-02-14T05:10:52.744Z,19.25
2019-02-14T05:13:24.294Z,19.22
2019-02-14T05:15:55.453Z,19.07
2019-02-14T05:18:28.316Z,18.76
2019-02-14T05:20:59.399Z,18.76
2019-02-14T05:23:31.026Z,19.06
2019-02-14T05:26:02.077Z,19.09
2019-02-14T05:28:33.610Z,18.89
2019-02-14T05:31:04.810Z,18.89
2019-02-14T05:33:37.533Z,18.81
2019-02-14T05:36:08.926Z,18.77
2019-02-14T05:38:41.161Z,18.77
2019-02-14T05:41:12.651Z,18.68
2019-02-14T05:43:43.967Z,18.89
2019-02-14T05:46:15.237Z,18.82
2019-02-14T05:48:46.744Z,18.93
2019-02-14T05:51:18.259Z,18.93
2019-02-14T05:53:49.549Z,19.11
2019-02-14T05:56:20.879Z,18.94
2019-02-14T05:58:52.263Z,19.02
2019-02-14T06:01:24.080Z,19.03
2019-02-14T06:03:55.632Z,19.03
2019-02-14T06:06:28.841Z,19.13
2019-02-14T06:09:00.546Z,19.20
2019-02-14T06:11:32.070Z,19.13
2019-02-14T06:14:03.367Z,19.27
2019-02-14T06:16:34.760Z,19.27
2019-02-14T06:19:06.139Z,19.26
2019-02-14T06:21:37.544Z,19.26
2019-02-14T06:24:09.019Z,19.30
2019-02-14T06:26:40.421Z,19.32
2019-02-14T06:29:11.997Z,19.32
2019-02-14T06:31:43.510Z,19.28
2019-02-14T06:34:14.823Z,19.23
2019-02-14T06:36:46.123Z,19.32
2019-02-14T06:39:17.993Z,19.43
2019-02-14T06:41:49.494Z,19.28
2019-02-14T06:44:20.945Z,19.44
2019-02-14T06:46:52.294Z,19.44
2019-02-14T06:49:23.538Z,19.72
2019-02-14T06:51:54.881Z,19.72
2019-02-14T06:54:26.203Z,19.93
2019-02-14T06:56:57.331Z,19.91
2019-02-14T06:59:28.674Z,19.79
2019-02-14T07:02:00.215Z,20.02
2019-02-14T07:04:31.556Z,20.06
2019-02-14T07:07:02.793Z,20.06
2019-02-14T07:09:34.524Z,20.12
2019-02-14T07:12:06.174Z,19.98
2019-02-14T07:14:37.456Z,20.09
2019-02-14T07:17:09.792Z,20.09
2019-02-14T07:19:41.082Z,20.12
2019-02-14T07:22:12.252Z,20.12
2019-02-14T07:24:43.604Z,20.35
2019-02-14T07:27:15.037Z,20.35
2019-02-14T07:29:46.528Z,20.35
2019-02-14T07:32:18.186Z,20.38
2019-02-14T07:34:49.610Z,20.34
2019-02-14T07:37:26.523Z,20.34
2019-02-14T07:39:54.111Z,20.30
2019-02-14T07:42:25.769Z,20.38
2019-02-14T07:44:57.719Z,20.34
2019-02-14T07:47:29.227Z,20.29
2019-02-14T07:50:00.567Z,20.39
2019-02-14T07:52:31.822Z,20.42
2019-02-14T07:55:03.262Z,20.42
2019-02-14T07:57:34.593Z,20.31
2019-02-14T08:00:07.097Z,20.28
2019-02-14T08:02:38.813Z,20.30
2019-02-14T08:05:10.381Z,20.35
2019-02-14T08:07:42.034Z,20.34
2019-02-14T08:10:14.861Z,20.44
2019-02-14T08:12:46.346Z,20.62
2019-02-14T08:15:17.733Z,20.69
2019-02-14T08:17:49.463Z,20.60
2019-02-14T08:20:20.876Z,20.60
2019-02-14T08:22:52.286Z,20.59
2019-02-14T08:25:23.545Z,20.59
2019-02-14T08:27:55.341Z,20.70
2019-02-14T08:30:26.627Z,20.69
2019-02-14T08:32:58.301Z,20.86
2019-02-14T08:35:29.547Z,20.86
2019-02-14T08:38:00.955Z,20.96
2019-02-14T08:40:32.451Z,20.96
2019-02-14T08:43:03.973Z,20.98
2019-02-14T08:45:35.329Z,21.02
2019-02-14T08:48:07.869Z,21.01
2019-02-14T08:50:39.250Z,20.92
2019-02-14T08:53:10.574Z,20.92
2019-02-14T08:55:42.223Z,20.98
2019-02-14T08:58:13.563Z,20.98
2019-02-14T09:00:44.846Z,21.07
2019-02-14T09:03:16.261Z,21.07
2019-02-14T09:05:47.994Z,20.98
2019-02-14T09:08:19.283Z,20.98
2019-02-14T09:10:50.666Z,20.97
2019-02-14T09:13:22.281Z,20.96
2019-02-14T09:15:53.691Z,20.96
2019-02-14T09:18:25.482Z,20.89
2019-02-14T09:20:56.965Z,20.91
2019-02-14T09:23:28.751Z,20.91
2019-02-14T09:26:02.404Z,21.06
2019-02-14T09:28:34.009Z,21.06
2019-02-14T09:31:05.663Z,21.21
2019-02-14T09:33:37.326Z,21.27
2019-02-14T09:36:09.046Z,21.29
2019-02-14T09:38:41.540Z,21.29
2019-02-14T09:41:13.889Z,21.29
2019-02-14T09:43:46.086Z,21.29
2019-02-14T09:46:18.547Z,21.29
2019-02-14T09:48:50.124Z,21.29
2019-02-14T09:51:21.564Z,21.31
2019-02-14T09:53:52.742Z,21.21
2019-02-14T09:56:24.550Z,21.17
2019-02-14T09:58:55.953Z,21.31
2019-02-14T10:01:27.454Z,21.31
2019-02-14T10:03:59.069Z,21.40
2019-02-14T10:06:36.747Z,21.40
2019-02-14T10:09:05.652Z,21.33
2019-02-14T10:11:37.367Z,21.26
2019-02-14T10:14:08.682Z,21.26
2019-02-14T10:16:40.800Z,21.34
2019-02-14T10:19:12.158Z,21.34
2019-02-14T10:21:43.536Z,21.33
2019-02-14T10:24:14.927Z,21.36
2019-02-14T10:26:46.310Z,21.31
2019-02-14T10:29:17.522Z,21.31
2019-02-14T10:31:48.763Z,21.39
2019-02-14T10:34:20.118Z,21.34
2019-02-14T10:36:51.298Z,21.34
2019-02-14T10:39:22.809Z,21.34
2019-02-14T10:41:54.329Z,21.34
2019-02-14T10:44:25.615Z,21.33
2019-02-14T10:46:57.333Z,21.39
2019-02-14T10:49:28.793Z,21.42
2019-02-14T10:52:00.349Z,21.35
2019-02-14T10:54:32.149Z,21.35
2019-02-14T10:57:03.541Z,21.32
2019-02-14T10:59:34.957Z,21.32
2019-02-14T11:02:07.212Z,21.32
2019-02-14T11:04:38.865Z,21.27
2019-02-14T11:07:10.457Z,21.27
2019-02-14T11:09:43.258Z,21.28
2019-02-14T11:12:14.733Z,21.22
2019-02-14T11:14:46.248Z,21.24
2019-02-14T11:17:18.181Z,21.24
2019-02-14T11:19:49.420Z,21.20
2019-02-14T11:22:21.470Z,21.17
2019-02-14T11:24:53.330Z,21.17
2019-02-14T11:27:24.961Z,21.17
2019-02-14T11:29:56.688Z,21.19
2019-02-14T11:32:28.323Z,21.12
2019-02-14T11:35:00.030Z,21.12
2019-02-14T11:37:31.579Z,21.08
2019-02-14T11:40:03.231Z,21.05
2019-02-14T11:42:35.000Z,21.05
2019-02-14T11:45:06.827Z,21.01
2019-02-14T11:47:42.267Z,21.01
2019-02-14T11:50:17.370Z,20.98
2019-02-14T11:52:48.897Z,20.99
2019-02-14T11:55:20.520Z,20.99
2019-02-14T11:57:51.909Z,20.99
2019-02-14T12:00:24.939Z,20.91
2019-02-14T12:02:56.697Z,20.82
2019-02-14T12:05:27.879Z,20.84
2019-02-14T12:07:59.262Z,20.84
2019-02-14T12:10:32.046Z,20.83
2019-02-14T12:13:03.718Z,20.81
2019-02-14T12:15:35.323Z,20.79
2019-02-14T12:18:07.083Z,20.81
2019-02-14T12:20:38.683Z,20.71
2019-02-14T12:23:10.465Z,20.71
2019-02-14T12:25:41.934Z,20.77
2019-02-14T12:28:13.515Z,20.77
2019-02-14T12:30:45.325Z,20.74
2019-02-14T12:33:16.567Z,20.74
2019-02-14T12:35:47.805Z,20.65
2019-02-14T12:38:19.731Z,20.65
2019-02-14T12:40:51.442Z,20.70
2019-02-14T12:43:22.891Z,20.70
2019-02-14T12:45:54.369Z,20.67
2019-02-14T12:48:26.049Z,20.67
2019-02-14T12:50:57.421Z,20.70
2019-02-14T12:53:29.091Z,20.59
2019-02-14T12:56:00.769Z,20.52
2019-02-14T12:58:32.436Z,20.52
2019-02-14T13:01:04.091Z,20.45
2019-02-14T13:03:35.784Z,20.46
2019-02-14T13:06:07.300Z,20.47
2019-02-14T13:08:38.624Z,20.50
2019-02-14T13:11:10.097Z,20.48
2019-02-14T13:13:41.747Z,20.43
2019-02-14T13:16:13.488Z,20.40
2019-02-14T13:18:45.109Z,20.46
2019-02-14T13:21:16.968Z,20.46
2019-02-14T13:23:48.643Z,20.35
2019-02-14T13:26:20.439Z,20.46
2019-02-14T13:28:52.186Z,20.39
2019-02-14T13:31:31.573Z,20.39
2019-02-14T13:33:57.027Z,20.43
2019-02-14T13:36:28.933Z,20.43
2019-02-14T13:39:00.333Z,20.31
2019-02-14T13:41:34.026Z,20.34
2019-02-14T13:44:05.284Z,20.26
2019-02-14T13:46:36.827Z,20.26
2019-02-14T13:49:08.324Z,20.22
2019-02-14T13:51:39.781Z,20.24
2019-02-14T13:54:11.262Z,20.24
2019-02-14T13:56:42.941Z,20.22
2019-02-14T13:59:14.517Z,20.22
2019-02-14T14:01:46.202Z,20.24
2019-02-14T14:04:17.773Z,20.16
2019-02-14T14:06:49.552Z,20.12
2019-02-14T14:09:21.058Z,20.12
2019-02-14T14:11:54.486Z,20.11
2019-02-14T14:14:25.742Z,20.17
2019-02-14T14:16:57.937Z,20.04
2019-02-14T14:19:30.487Z,20.10
2019-02-14T14:22:02.311Z,19.97
2019-02-14T14:24:33.534Z,19.98
2019-02-14T14:27:05.158Z,19.84
2019-02-14T14:29:36.702Z,19.94
2019-02-14T14:32:08.375Z,19.94
2019-02-14T14:34:39.678Z,19.87
2019-02-14T14:37:11.076Z,19.82
2019-02-14T14:39:47.855Z,19.84
2019-02-14T14:42:34.254Z,19.89
2019-02-14T14:45:07.240Z,19.89
2019-02-14T14:47:38.804Z,19.76
2019-02-14T14:50:10.293Z,19.86
2019-02-14T14:52:41.614Z,19.83
2019-02-14T14:55:13.262Z,19.83
2019-02-14T14:57:44.634Z,19.77
2019-02-14T15:00:16.155Z,19.72
2019-02-14T15:02:47.722Z,19.70
2019-02-14T15:05:19.448Z,19.64
2019-02-14T15:07:50.980Z,19.56
2019-02-14T15:10:22.293Z,19.56
2019-02-14T15:12:53.889Z,19.47
2019-02-14T15:15:25.846Z,19.59
2019-02-14T15:17:57.527Z,19.43
2019-02-14T15:20:29.626Z,19.60
2019-02-14T15:23:01.358Z,19.60
2019-02-14T15:25:32.820Z,19.40
2019-02-14T15:28:04.006Z,19.40
2019-02-14T15:30:35.275Z,19.31
2019-02-14T15:33:06.804Z,19.43
2019-02-14T15:35:38.044Z,19.40
2019-02-14T15:38:11.400Z,19.36
2019-02-14T15:40:43.094Z,19.32
2019-02-14T15:43:14.598Z,19.32
2019-02-14T15:45:46.156Z,19.32
2019-02-14T15:48:17.883Z,19.41
2019-02-14T15:50:51.192Z,19.43
2019-02-14T15:53:22.368Z,19.23
2019-02-14T15:55:53.946Z,19.23
2019-02-14T15:58:25.940Z,19.23
2019-02-14T16:00:58.408Z,19.08
2019-02-14T16:03:30.063Z,19.26
2019-02-14T16:06:02.254Z,19.44
2019-02-14T16:08:34.724Z,19.44
2019-02-14T16:11:06.342Z,19.26
2019-02-14T16:13:37.862Z,19.24
2019-02-14T16:16:10.011Z,19.23
2019-02-14T16:18:41.379Z,19.23
2019-02-14T16:21:13.104Z,19.32
2019-02-14T16:23:44.566Z,19.16
2019-02-14T16:26:17.135Z,19.16
2019-02-14T16:28:48.632Z,19.16
2019-02-14T16:31:20.325Z,19.21
2019-02-14T16:33:51.922Z,19.21
2019-02-14T16:36:23.924Z,19.21
2019-02-14T16:38:56.423Z,19.21
2019-02-14T16:41:28.264Z,19.25
2019-02-14T16:44:00.046Z,19.12
2019-02-14T16:46:31.488Z,19.00
2019-02-14T16:49:02.927Z,18.93
2019-02-14T16:51:34.537Z,18.75
2019-02-14T16:54:06.286Z,18.75
2019-02-14T16:56:37.850Z,18.96
2019-02-14T16:59:09.506Z,18.96
2019-02-14T17:01:40.823Z,18.99
2019-02-14T17:04:12.703Z,19.03
2019-02-14T17:06:43.935Z,19.08
2019-02-14T17:09:15.335Z,18.88
2019-02-14T17:11:46.855Z,19.05
2019-02-14T17:14:18.523Z,19.05
2019-02-14T17:16:50.291Z,19.00
2019-02-14T17:19:21.701Z,18.96
2019-02-14T17:21:53.100Z,18.68
2019-02-14T17:24:24.852Z,18.73
2019-02-14T17:26:56.258Z,18.73
2019-02-14T17:29:27.772Z,18.70
2019-02-14T17:31:59.258Z,18.84
2019-02-14T17:34:30.699Z,18.85
2019-02-14T17:37:02.345Z,18.73
2019-02-14T17:39:34.766Z,18.73
2019-02-14T17:42:06.701Z,18.80
2019-02-14T17:44:38.625Z,18.96
2019-02-14T17:47:10.079Z,18.96
2019-02-14T17:49:41.374Z,18.76
2019-02-14T17:52:12.720Z,18.76
2019-02-14T17:54:44.039Z,18.84
2019-02-14T17:57:15.398Z,18.84
2019-02-14T17:59:46.724Z,18.97
2019-02-14T18:02:18.650Z,18.97
2019-02-14T18:04:50.110Z,18.92
2019-02-14T18:07:21.434Z,18.82
2019-02-14T18:09:52.714Z,18.89
2019-02-14T18:12:23.898Z,18.89
2019-02-14T18:14:55.244Z,18.93
2019-02-14T18:17:26.571Z,18.89
2019-02-14T18:19:58.154Z,18.83
2019-02-14T18:22:29.463Z,18.67
2019-02-14T18:25:01.073Z,18.69
2019-02-14T18:27:32.632Z,18.83
2019-02-14T18:30:04.078Z,18.83
2019-02-14T18:32:36.037Z,18.75
2019-02-14T18:35:09.371Z,18.68
2019-02-14T18:37:41.851Z,18.73
2019-02-14T18:40:13.594Z,18.80
2019-02-14T18:42:45.284Z,18.61
2019-02-14T18:45:17.066Z,18.87
2019-02-14T18:47:48.256Z,19.02
2019-02-14T18:50:19.841Z,19.02
2019-02-14T18:52:51.205Z,18.82
2019-02-14T18:55:22.447Z,18.82
2019-02-14T18:57:53.652Z,18.82
2019-02-14T19:00:25.534Z,18.83
2019-02-14T19:02:57.175Z,19.02
2019-02-14T19:05:28.547Z,18.76
2019-02-14T19:08:00.221Z,18.76
2019-02-14T19:10:33.193Z,18.56
2019-02-14T19:13:04.496Z,18.67
2019-02-14T19:15:36.119Z,18.72
2019-02-14T19:18:07.542Z,18.79
2019-02-14T19:20:38.926Z,18.73
2019-02-14T19:23:10.346Z,18.73
2019-02-14T19:25:41.685Z,18.78
2019-02-14T19:28:12.869Z,18.81
2019-02-14T19:30:44.211Z,18.94
2019-02-14T19:33:15.350Z,18.88
2019-02-14T19:35:46.625Z,18.81
2019-02-14T19:38:17.919Z,18.87
2019-02-14T19:40:49.795Z,18.85
2019-02-14T19:43:20.952Z,18.74
2019-02-14T19:45:52.459Z,18.74
2019-02-14T19:48:23.635Z,18.91
2019-02-14T19:50:55.056Z,18.71
2019-02-14T19:53:26.426Z,18.51
2019-02-14T19:55:57.925Z,17.92
2019-02-14T19:58:29.326Z,17.89
2019-02-14T20:01:00.773Z,17.81
2019-02-14T20:03:32.214Z,17.97
2019-02-14T20:06:03.984Z,17.85
2019-02-14T20:08:35.898Z,17.85
2019-02-14T20:11:07.593Z,17.98
2019-02-14T20:13:38.778Z,17.98
2019-02-14T20:16:10.103Z,17.97
2019-02-14T20:18:41.253Z,18.00
2019-02-14T20:21:12.879Z,17.66
2019-02-14T20:23:44.148Z,17.66
2019-02-14T20:26:15.500Z,17.66
2019-02-14T20:28:47.023Z,17.58
2019-02-14T20:31:18.382Z,17.51
2019-02-14T20:33:49.818Z,17.51
2019-02-14T20:36:21.073Z,17.43
2019-02-14T20:38:52.649Z,17.37
2019-02-14T20:41:23.973Z,17.38
2019-02-14T20:43:55.535Z,17.07
2019-02-14T20:46:27.052Z,17.07
2019-02-14T20:48:59.764Z,17.53
2019-02-14T20:51:38.366Z,17.53
2019-02-14T20:54:04.034Z,16.97
2019-02-14T20:56:35.240Z,16.97
2019-02-14T20:59:06.862Z,16.71
2019-02-14T21:01:38.036Z,16.71
2019-02-14T21:04:09.407Z,16.93
2019-02-14T21:06:40.700Z,16.92
2019-02-14T21:09:13.082Z,16.81
2019-02-14T21:11:44.260Z,17.11
2019-02-14T21:14:15.593Z,17.11
2019-02-14T21:16:46.966Z,17.09
2019-02-14T21:19:18.575Z,17.15
2019-02-14T21:21:50.383Z,16.81
2019-02-14T21:24:21.803Z,16.81
2019-02-14T21:26:53.351Z,16.83
2019-02-14T21:29:24.468Z,16.83
2019-02-14T21:31:55.969Z,17.04
2019-02-14T21:34:27.439Z,16.91
2019-02-14T21:36:58.506Z,17.20
2019-02-14T21:39:30.136Z,16.93
2019-02-14T21:42:18.816Z,17.24
2019-02-14T21:44:34.304Z,17.24
2019-02-14T21:47:05.823Z,17.33
2019-02-14T21:49:37.211Z,17.19
2019-02-14T21:52:08.505Z,17.09
2019-02-14T21:54:39.761Z,17.15
2019-02-14T21:57:11.255Z,17.15
2019-02-14T21:59:43.898Z,17.07
2019-02-14T22:02:15.294Z,17.09
2019-02-14T22:04:47.249Z,17.19
2019-02-14T22:07:18.793Z,17.20
2019-02-14T22:09:50.247Z,17.20
2019-02-14T22:12:38.254Z,17.13
2019-02-14T22:14:54.503Z,17.01
2019-02-14T22:17:26.136Z,17.16
2019-02-14T22:19:57.602Z,17.14
2019-02-14T22:22:29.031Z,17.13
2019-02-14T22:25:00.310Z,16.82
2019-02-14T22:27:31.470Z,16.82
2019-02-14T22:30:03.175Z,17.04
2019-02-14T22:32:36.014Z,17.15
2019-02-14T22:35:07.653Z,17.02
2019-02-14T22:37:39.268Z,16.93
2019-02-14T22:40:10.741Z,16.93
2019-02-14T22:42:47.081Z,16.93
2019-02-14T22:45:16.275Z,17.25
2019-02-14T22:47:47.541Z,17.39
2019-02-14T22:50:18.824Z,17.39
2019-02-14T22:52:50.031Z,17.20
2019-02-14T22:55:21.299Z,17.07
2019-02-14T22:57:52.568Z,17.02
2019-02-14T23:00:47.677Z,17.02
2019-02-14T23:03:21.245Z,17.29
2019-02-14T23:05:52.376Z,17.31
2019-02-14T23:08:24.406Z,17.47
2019-02-14T23:10:55.825Z,17.51
2019-02-14T23:13:27.156Z,17.13
2019-02-14T23:15:58.570Z,17.08
2019-02-14T23:18:29.984Z,17.08
2019-02-14T23:21:01.440Z,17.11
2019-02-14T23:23:32.458Z,17.11
2019-02-14T23:26:03.870Z,17.23
2019-02-14T23:28:35.362Z,17.27
2019-02-14T23:31:06.654Z,17.27
2019-02-14T23:33:38.045Z,17.40
2019-02-14T23:36:09.350Z,17.40
2019-02-14T23:38:40.640Z,17.17
2019-02-14T23:41:11.861Z,17.29
2019-02-14T23:43:43.084Z,17.48
2019-02-14T23:46:14.629Z,17.61
2019-02-14T23:48:46.057Z,17.61
2019-02-14T23:51:17.562Z,17.41
2019-02-14T23:53:48.786Z,17.49
2019-02-14T23:56:20.631Z,17.27
2019-02-14T23:58:51.888Z,17.27
